sensor_id;sensor_type;location;lat;lon;timestamp;temperature;humidity
22923;DHT22;11627;51.322;22.816;2023-06-10T00:00:45;19.60;1.00
22923;DHT22;11627;51.322;22.816;2023-06-10T00:03:12;19.60;1.00
22923;DHT22;11627;51.322;22.816;2023-06-10T00:05:39;19.70;1.00
22923;DHT22;11627;51.322;22.816;2023-06-10T00:08:07;19.60;1.00
22923;DHT22;11627;51.322;22.816;2023-06-10T00:10:38;19.70;1.00
22923;DHT22;11627;51.322;22.816;2023-06-10T00:13:06;19.70;1.00
22923;DHT22;11627;51.322;22.816;2023-06-10T00:15:37;19.70;1.00
22923;DHT22;11627;51.322;22.816;2023-06-10T00:18:05;19.70;1.00
22923;DHT22;11627;51.322;22.816;2023-06-10T00:20:32;19.70;1.00
22923;DHT22;11627;51.322;22.816;2023-06-10T00:23:01;19.70;1.00
22923;DHT22;11627;51.322;22.816;2023-06-10T00:25:28;19.70;1.00
22923;DHT22;11627;51.322;22.816;2023-06-10T00:27:55;19.70;1.00
22923;DHT22;11627;51.322;22.816;2023-06-10T00:30:22;19.60;1.00
22923;DHT22;11627;51.322;22.816;2023-06-10T00:32:49;19.60;1.00
22923;DHT22;11627;51.322;22.816;2023-06-10T00:35:16;19.50;99.90
22923;DHT22;11627;51.322;22.816;2023-06-10T00:37:43;19.50;1.00
22923;DHT22;11627;51.322;22.816;2023-06-10T00:40:09;19.40;1.00
22923;DHT22;11627;51.322;22.816;2023-06-10T00:42:37;19.40;1.00
22923;DHT22;11627;51.322;22.816;2023-06-10T00:45:04;19.30;1.00
22923;DHT22;11627;51.322;22.816;2023-06-10T00:47:31;19.30;1.00
22923;DHT22;11627;51.322;22.816;2023-06-10T00:49:58;19.30;1.00
22923;DHT22;11627;51.322;22.816;2023-06-10T00:52:27;19.20;1.00
22923;DHT22;11627;51.322;22.816;2023-06-10T00:54:55;19.30;1.00
22923;DHT22;11627;51.322;22.816;2023-06-10T00:57:23;19.20;1.00
22923;DHT22;11627;51.322;22.816;2023-06-10T00:59:51;19.20;1.00
22923;DHT22;11627;51.322;22.816;2023-06-10T01:02:18;19.30;1.00
22923;DHT22;11627;51.322;22.816;2023-06-10T01:04:46;19.30;1.00
22923;DHT22;11627;51.322;22.816;2023-06-10T01:07:28;19.30;1.00
22923;DHT22;11627;51.322;22.816;2023-06-10T01:10:53;19.30;1.00
22923;DHT22;11627;51.322;22.816;2023-06-10T01:13:18;19.30;1.00
22923;DHT22;11627;51.322;22.816;2023-06-10T01:15:47;19.30;1.00
22923;DHT22;11627;51.322;22.816;2023-06-10T01:18:13;19.20;1.00
22923;DHT22;11627;51.322;22.816;2023-06-10T01:20:42;19.20;1.00
22923;DHT22;11627;51.322;22.816;2023-06-10T01:23:10;19.20;1.00
22923;DHT22;11627;51.322;22.816;2023-06-10T01:25:40;19.20;1.00
22923;DHT22;11627;51.322;22.816;2023-06-10T01:33:25;19.00;1.00
22923;DHT22;11627;51.322;22.816;2023-06-10T01:35:53;18.90;1.00
22923;DHT22;11627;51.322;22.816;2023-06-10T01:38:23;18.90;1.00
22923;DHT22;11627;51.322;22.816;2023-06-10T01:40:58;18.80;1.00
22923;DHT22;11627;51.322;22.816;2023-06-10T01:43:26;18.90;1.00
22923;DHT22;11627;51.322;22.816;2023-06-10T01:45:53;18.80;1.00
22923;DHT22;11627;51.322;22.816;2023-06-10T01:48:20;18.80;4.80
22923;DHT22;11627;51.322;22.816;2023-06-10T01:50:47;18.70;6.30
22923;DHT22;11627;51.322;22.816;2023-06-10T01:53:14;18.70;7.40
22923;DHT22;11627;51.322;22.816;2023-06-10T01:55:41;18.70;11.40
22923;DHT22;11627;51.322;22.816;2023-06-10T01:58:08;18.70;8.20
22923;DHT22;11627;51.322;22.816;2023-06-10T02:00:35;18.70;5.60
22923;DHT22;11627;51.322;22.816;2023-06-10T02:03:02;18.70;3.70
22923;DHT22;11627;51.322;22.816;2023-06-10T02:05:27;18.60;1.00
22923;DHT22;11627;51.322;22.816;2023-06-10T02:07:54;18.60;1.00
22923;DHT22;11627;51.322;22.816;2023-06-10T02:10:20;18.50;1.00
22923;DHT22;11627;51.322;22.816;2023-06-10T02:12:47;18.50;1.00
22923;DHT22;11627;51.322;22.816;2023-06-10T02:15:14;18.50;1.00
22923;DHT22;11627;51.322;22.816;2023-06-10T02:17:40;18.50;1.00
22923;DHT22;11627;51.322;22.816;2023-06-10T02:20:07;18.50;1.00
22923;DHT22;11627;51.322;22.816;2023-06-10T02:22:37;18.50;1.00
22923;DHT22;11627;51.322;22.816;2023-06-10T02:25:05;18.60;1.00
22923;DHT22;11627;51.322;22.816;2023-06-10T02:27:32;18.50;1.00
22923;DHT22;11627;51.322;22.816;2023-06-10T02:29:59;18.60;1.00
22923;DHT22;11627;51.322;22.816;2023-06-10T02:32:27;18.60;1.00
22923;DHT22;11627;51.322;22.816;2023-06-10T02:34:55;18.50;1.00
22923;DHT22;11627;51.322;22.816;2023-06-10T02:37:22;18.60;1.00
22923;DHT22;11627;51.322;22.816;2023-06-10T02:39:49;18.50;1.00
22923;DHT22;11627;51.322;22.816;2023-06-10T02:42:16;18.50;1.00
22923;DHT22;11627;51.322;22.816;2023-06-10T02:44:43;18.60;1.00
22923;DHT22;11627;51.322;22.816;2023-06-10T02:47:09;18.50;1.40
22923;DHT22;11627;51.322;22.816;2023-06-10T02:49:36;18.40;10.70
22923;DHT22;11627;51.322;22.816;2023-06-10T02:52:03;18.30;14.90
22923;DHT22;11627;51.322;22.816;2023-06-10T02:54:30;18.30;20.50
22923;DHT22;11627;51.322;22.816;2023-06-10T02:56:57;18.20;23.90
22923;DHT22;11627;51.322;22.816;2023-06-10T02:59:24;18.30;28.10
22923;DHT22;11627;51.322;22.816;2023-06-10T03:01:54;18.30;27.30
22923;DHT22;11627;51.322;22.816;2023-06-10T03:04:21;18.40;27.30
22923;DHT22;11627;51.322;22.816;2023-06-10T03:06:50;18.30;29.60
22923;DHT22;11627;51.322;22.816;2023-06-10T03:09:17;18.40;34.30
22923;DHT22;11627;51.322;22.816;2023-06-10T03:11:44;18.50;35.00
22923;DHT22;11627;51.322;22.816;2023-06-10T03:14:11;18.40;30.50
22923;DHT22;11627;51.322;22.816;2023-06-10T03:16:38;18.40;32.50
22923;DHT22;11627;51.322;22.816;2023-06-10T03:19:09;18.50;32.30
22923;DHT22;11627;51.322;22.816;2023-06-10T03:21:35;18.50;29.90
22923;DHT22;11627;51.322;22.816;2023-06-10T03:24:04;18.40;33.60
22923;DHT22;11627;51.322;22.816;2023-06-10T03:26:31;18.40;29.50
22923;DHT22;11627;51.322;22.816;2023-06-10T03:28:58;18.40;31.20
22923;DHT22;11627;51.322;22.816;2023-06-10T03:31:25;18.30;39.40
22923;DHT22;11627;51.322;22.816;2023-06-10T03:33:52;18.30;39.00
22923;DHT22;11627;51.322;22.816;2023-06-10T03:36:20;18.30;43.70
22923;DHT22;11627;51.322;22.816;2023-06-10T03:38:45;18.20;40.70
22923;DHT22;11627;51.322;22.816;2023-06-10T03:41:12;18.20;45.60
22923;DHT22;11627;51.322;22.816;2023-06-10T03:43:40;18.20;47.80
22923;DHT22;11627;51.322;22.816;2023-06-10T03:46:07;18.20;49.50
22923;DHT22;11627;51.322;22.816;2023-06-10T03:48:34;18.20;46.20
22923;DHT22;11627;51.322;22.816;2023-06-10T03:51:01;18.20;45.00
22923;DHT22;11627;51.322;22.816;2023-06-10T03:53:28;18.20;48.70
22923;DHT22;11627;51.322;22.816;2023-06-10T03:55:56;18.10;49.00
22923;DHT22;11627;51.322;22.816;2023-06-10T03:58:24;18.00;54.50
22923;DHT22;11627;51.322;22.816;2023-06-10T04:00:52;18.10;59.30
22923;DHT22;11627;51.322;22.816;2023-06-10T04:03:19;18.10;54.90
22923;DHT22;11627;51.322;22.816;2023-06-10T04:05:48;18.10;54.20
22923;DHT22;11627;51.322;22.816;2023-06-10T04:08:14;18.10;55.10
22923;DHT22;11627;51.322;22.816;2023-06-10T04:10:41;18.00;54.60
22923;DHT22;11627;51.322;22.816;2023-06-10T04:13:08;18.00;56.60
22923;DHT22;11627;51.322;22.816;2023-06-10T04:15:36;18.00;57.30
22923;DHT22;11627;51.322;22.816;2023-06-10T04:18:04;18.00;56.90
22923;DHT22;11627;51.322;22.816;2023-06-10T04:20:31;17.90;57.20
22923;DHT22;11627;51.322;22.816;2023-06-10T04:22:58;18.00;57.10
22923;DHT22;11627;51.322;22.816;2023-06-10T04:25:26;17.90;60.90
22923;DHT22;11627;51.322;22.816;2023-06-10T04:27:53;17.80;61.80
22923;DHT22;11627;51.322;22.816;2023-06-10T04:30:21;17.90;60.50
22923;DHT22;11627;51.322;22.816;2023-06-10T04:32:48;17.90;64.00
22923;DHT22;11627;51.322;22.816;2023-06-10T04:35:16;17.90;62.60
22923;DHT22;11627;51.322;22.816;2023-06-10T04:37:43;18.00;60.30
22923;DHT22;11627;51.322;22.816;2023-06-10T04:40:09;18.10;59.10
22923;DHT22;11627;51.322;22.816;2023-06-10T04:42:36;18.10;54.00
22923;DHT22;11627;51.322;22.816;2023-06-10T04:45:03;18.10;54.60
22923;DHT22;11627;51.322;22.816;2023-06-10T04:47:30;18.20;55.00
22923;DHT22;11627;51.322;22.816;2023-06-10T04:50:02;18.10;52.80
22923;DHT22;11627;51.322;22.816;2023-06-10T04:52:30;18.10;56.30
22923;DHT22;11627;51.322;22.816;2023-06-10T04:54:59;18.10;56.20
22923;DHT22;11627;51.322;22.816;2023-06-10T04:57:26;18.10;53.00
22923;DHT22;11627;51.322;22.816;2023-06-10T04:59:53;18.00;57.40
22923;DHT22;11627;51.322;22.816;2023-06-10T05:02:20;18.00;61.70
22923;DHT22;11627;51.322;22.816;2023-06-10T05:04:48;18.10;64.70
22923;DHT22;11627;51.322;22.816;2023-06-10T05:07:15;18.20;65.70
22923;DHT22;11627;51.322;22.816;2023-06-10T05:09:42;18.30;61.60
22923;DHT22;11627;51.322;22.816;2023-06-10T05:12:09;18.20;55.90
22923;DHT22;11627;51.322;22.816;2023-06-10T05:14:36;18.20;53.60
22923;DHT22;11627;51.322;22.816;2023-06-10T05:17:03;18.20;52.70
22923;DHT22;11627;51.322;22.816;2023-06-10T05:19:32;18.20;55.30
22923;DHT22;11627;51.322;22.816;2023-06-10T05:21:59;18.30;53.30
22923;DHT22;11627;51.322;22.816;2023-06-10T05:24:26;18.20;56.60
22923;DHT22;11627;51.322;22.816;2023-06-10T05:26:52;18.20;56.10
22923;DHT22;11627;51.322;22.816;2023-06-10T05:29:19;18.10;54.80
22923;DHT22;11627;51.322;22.816;2023-06-10T05:31:46;18.10;54.80
22923;DHT22;11627;51.322;22.816;2023-06-10T05:34:13;18.10;53.30
22923;DHT22;11627;51.322;22.816;2023-06-10T05:36:40;18.00;52.80
22923;DHT22;11627;51.322;22.816;2023-06-10T05:39:08;18.00;50.80
22923;DHT22;11627;51.322;22.816;2023-06-10T05:41:35;17.90;52.10
22923;DHT22;11627;51.322;22.816;2023-06-10T05:44:04;18.00;52.30
22923;DHT22;11627;51.322;22.816;2023-06-10T05:46:32;18.10;50.20
22923;DHT22;11627;51.322;22.816;2023-06-10T05:49:01;18.10;50.80
22923;DHT22;11627;51.322;22.816;2023-06-10T05:51:29;18.10;50.20
22923;DHT22;11627;51.322;22.816;2023-06-10T05:53:56;18.00;49.10
22923;DHT22;11627;51.322;22.816;2023-06-10T05:56:23;18.00;44.80
22923;DHT22;11627;51.322;22.816;2023-06-10T05:58:54;18.10;42.40
22923;DHT22;11627;51.322;22.816;2023-06-10T06:01:22;18.10;40.60
22923;DHT22;11627;51.322;22.816;2023-06-10T06:03:49;18.10;40.30
22923;DHT22;11627;51.322;22.816;2023-06-10T06:06:16;18.10;36.90
22923;DHT22;11627;51.322;22.816;2023-06-10T06:08:43;18.00;41.00
22923;DHT22;11627;51.322;22.816;2023-06-10T06:11:10;18.00;47.20
22923;DHT22;11627;51.322;22.816;2023-06-10T06:13:37;18.10;51.80
22923;DHT22;11627;51.322;22.816;2023-06-10T06:16:03;18.00;51.80
22923;DHT22;11627;51.322;22.816;2023-06-10T06:18:30;17.90;57.50
22923;DHT22;11627;51.322;22.816;2023-06-10T06:20:57;17.80;62.20
22923;DHT22;11627;51.322;22.816;2023-06-10T06:23:24;17.90;67.20
22923;DHT22;11627;51.322;22.816;2023-06-10T06:25:51;17.90;68.10
22923;DHT22;11627;51.322;22.816;2023-06-10T06:28:18;17.90;68.00
22923;DHT22;11627;51.322;22.816;2023-06-10T06:30:47;18.00;66.80
22923;DHT22;11627;51.322;22.816;2023-06-10T06:33:14;18.00;66.70
22923;DHT22;11627;51.322;22.816;2023-06-10T06:35:41;17.90;66.60
22923;DHT22;11627;51.322;22.816;2023-06-10T06:38:09;17.90;64.20
22923;DHT22;11627;51.322;22.816;2023-06-10T06:40:36;17.70;65.00
22923;DHT22;11627;51.322;22.816;2023-06-10T06:43:03;17.70;69.80
22923;DHT22;11627;51.322;22.816;2023-06-10T06:45:29;17.70;68.50
22923;DHT22;11627;51.322;22.816;2023-06-10T06:47:56;17.60;66.80
22923;DHT22;11627;51.322;22.816;2023-06-10T06:50:23;17.70;68.60
22923;DHT22;11627;51.322;22.816;2023-06-10T06:52:50;17.80;69.20
22923;DHT22;11627;51.322;22.816;2023-06-10T06:55:18;18.10;66.10
22923;DHT22;11627;51.322;22.816;2023-06-10T06:57:45;18.20;52.20
22923;DHT22;11627;51.322;22.816;2023-06-10T07:00:11;18.30;46.70
22923;DHT22;11627;51.322;22.816;2023-06-10T07:02:38;18.40;43.70
22923;DHT22;11627;51.322;22.816;2023-06-10T07:05:06;18.50;43.50
22923;DHT22;11627;51.322;22.816;2023-06-10T07:07:34;18.60;40.40
22923;DHT22;11627;51.322;22.816;2023-06-10T07:10:01;18.50;39.00
22923;DHT22;11627;51.322;22.816;2023-06-10T07:12:28;18.50;41.50
22923;DHT22;11627;51.322;22.816;2023-06-10T07:14:55;18.50;37.30
22923;DHT22;11627;51.322;22.816;2023-06-10T07:17:22;18.50;36.80
22923;DHT22;11627;51.322;22.816;2023-06-10T07:19:50;18.50;38.70
22923;DHT22;11627;51.322;22.816;2023-06-10T07:22:18;18.50;37.90
22923;DHT22;11627;51.322;22.816;2023-06-10T07:24:46;18.50;40.70
22923;DHT22;11627;51.322;22.816;2023-06-10T07:27:13;18.50;41.50
22923;DHT22;11627;51.322;22.816;2023-06-10T07:29:40;18.50;34.20
22923;DHT22;11627;51.322;22.816;2023-06-10T07:32:08;18.40;34.90
22923;DHT22;11627;51.322;22.816;2023-06-10T07:34:35;18.40;49.70
22923;DHT22;11627;51.322;22.816;2023-06-10T07:37:01;18.50;51.20
22923;DHT22;11627;51.322;22.816;2023-06-10T07:39:28;18.50;50.30
22923;DHT22;11627;51.322;22.816;2023-06-10T07:41:55;18.50;49.10
22923;DHT22;11627;51.322;22.816;2023-06-10T07:44:24;18.50;48.00
22923;DHT22;11627;51.322;22.816;2023-06-10T07:46:51;18.50;49.50
22923;DHT22;11627;51.322;22.816;2023-06-10T07:49:19;18.50;50.00
22923;DHT22;11627;51.322;22.816;2023-06-10T07:51:46;18.50;49.70
22923;DHT22;11627;51.322;22.816;2023-06-10T07:54:13;18.50;51.40
22923;DHT22;11627;51.322;22.816;2023-06-10T07:56:40;18.50;54.80
22923;DHT22;11627;51.322;22.816;2023-06-10T07:59:09;18.50;57.50
22923;DHT22;11627;51.322;22.816;2023-06-10T08:01:35;18.50;56.00
22923;DHT22;11627;51.322;22.816;2023-06-10T08:04:05;18.40;57.00
22923;DHT22;11627;51.322;22.816;2023-06-10T08:06:32;18.40;53.60
22923;DHT22;11627;51.322;22.816;2023-06-10T08:08:59;18.60;58.90
22923;DHT22;11627;51.322;22.816;2023-06-10T08:11:27;18.30;60.40
22923;DHT22;11627;51.322;22.816;2023-06-10T08:13:56;18.30;65.00
22923;DHT22;11627;51.322;22.816;2023-06-10T08:16:22;18.30;66.00
22923;DHT22;11627;51.322;22.816;2023-06-10T08:18:49;18.20;66.00
22923;DHT22;11627;51.322;22.816;2023-06-10T08:21:17;18.20;68.80
22923;DHT22;11627;51.322;22.816;2023-06-10T08:23:44;18.20;68.10
22923;DHT22;11627;51.322;22.816;2023-06-10T08:26:11;18.20;68.20
22923;DHT22;11627;51.322;22.816;2023-06-10T08:28:38;18.10;68.70
22923;DHT22;11627;51.322;22.816;2023-06-10T08:31:05;18.20;69.90
22923;DHT22;11627;51.322;22.816;2023-06-10T08:33:32;18.30;69.90
22923;DHT22;11627;51.322;22.816;2023-06-10T08:35:59;18.20;70.80
22923;DHT22;11627;51.322;22.816;2023-06-10T08:38:26;18.10;71.20
22923;DHT22;11627;51.322;22.816;2023-06-10T08:40:56;18.10;68.80
22923;DHT22;11627;51.322;22.816;2023-06-10T08:46:31;18.10;70.50
22923;DHT22;11627;51.322;22.816;2023-06-10T08:49:02;18.10;71.30
22923;DHT22;11627;51.322;22.816;2023-06-10T08:51:31;18.10;71.10
22923;DHT22;11627;51.322;22.816;2023-06-10T08:54:02;18.10;69.90
22923;DHT22;11627;51.322;22.816;2023-06-10T08:56:33;18.10;72.10
22923;DHT22;11627;51.322;22.816;2023-06-10T08:59:03;18.10;70.80
22923;DHT22;11627;51.322;22.816;2023-06-10T09:01:32;18.00;70.60
22923;DHT22;11627;51.322;22.816;2023-06-10T09:03:59;18.10;71.00
22923;DHT22;11627;51.322;22.816;2023-06-10T09:06:27;18.20;71.10
22923;DHT22;11627;51.322;22.816;2023-06-10T09:08:55;18.20;71.50
22923;DHT22;11627;51.322;22.816;2023-06-10T09:11:22;18.20;69.10
22923;DHT22;11627;51.322;22.816;2023-06-10T09:13:49;18.30;63.10
22923;DHT22;11627;51.322;22.816;2023-06-10T09:16:16;18.20;59.40
22923;DHT22;11627;51.322;22.816;2023-06-10T09:18:43;18.20;57.20
22923;DHT22;11627;51.322;22.816;2023-06-10T09:21:10;18.20;51.00
22923;DHT22;11627;51.322;22.816;2023-06-10T09:23:38;18.30;48.30
22923;DHT22;11627;51.322;22.816;2023-06-10T09:26:08;18.30;45.40
22923;DHT22;11627;51.322;22.816;2023-06-10T09:28:38;18.30;41.70
22923;DHT22;11627;51.322;22.816;2023-06-10T09:31:07;18.30;41.10
22923;DHT22;11627;51.322;22.816;2023-06-10T09:33:47;18.40;42.30
22923;DHT22;11627;51.322;22.816;2023-06-10T09:36:23;18.50;43.70
22923;DHT22;11627;51.322;22.816;2023-06-10T09:38:50;18.50;39.50
22923;DHT22;11627;51.322;22.816;2023-06-10T09:41:17;18.50;32.40
22923;DHT22;11627;51.322;22.816;2023-06-10T09:43:45;18.50;32.00
22923;DHT22;11627;51.322;22.816;2023-06-10T09:46:17;18.50;39.50
22923;DHT22;11627;51.322;22.816;2023-06-10T09:48:45;18.60;45.50
22923;DHT22;11627;51.322;22.816;2023-06-10T09:51:14;18.70;48.10
22923;DHT22;11627;51.322;22.816;2023-06-10T09:53:41;18.70;47.20
22923;DHT22;11627;51.322;22.816;2023-06-10T09:56:08;18.70;36.40
22923;DHT22;11627;51.322;22.816;2023-06-10T09:58:39;18.70;37.90
22923;DHT22;11627;51.322;22.816;2023-06-10T10:01:14;18.70;46.90
22923;DHT22;11627;51.322;22.816;2023-06-10T10:03:50;18.80;61.60
22923;DHT22;11627;51.322;22.816;2023-06-10T10:06:19;18.80;54.70
22923;DHT22;11627;51.322;22.816;2023-06-10T10:08:50;18.90;22.20
22923;DHT22;11627;51.322;22.816;2023-06-10T10:11:20;18.90;29.90
22923;DHT22;11627;51.322;22.816;2023-06-10T10:13:50;18.90;32.00
22923;DHT22;11627;51.322;22.816;2023-06-10T10:16:33;18.90;21.20
22923;DHT22;11627;51.322;22.816;2023-06-10T10:19:08;18.90;20.70
22923;DHT22;11627;51.322;22.816;2023-06-10T10:21:44;19.00;33.10
22923;DHT22;11627;51.322;22.816;2023-06-10T10:24:33;19.00;34.10
22923;DHT22;11627;51.322;22.816;2023-06-10T10:27:07;19.00;28.70
22923;DHT22;11627;51.322;22.816;2023-06-10T10:29:39;19.00;25.40
22923;DHT22;11627;51.322;22.816;2023-06-10T10:32:07;18.90;27.20
22923;DHT22;11627;51.322;22.816;2023-06-10T10:34:41;19.00;29.10
22923;DHT22;11627;51.322;22.816;2023-06-10T10:37:10;18.90;25.10
22923;DHT22;11627;51.322;22.816;2023-06-10T10:39:37;18.90;28.40
22923;DHT22;11627;51.322;22.816;2023-06-10T10:42:05;18.90;37.50
22923;DHT22;11627;51.322;22.816;2023-06-10T10:44:38;18.80;27.20
22923;DHT22;11627;51.322;22.816;2023-06-10T10:47:11;18.80;27.60
22923;DHT22;11627;51.322;22.816;2023-06-10T10:49:39;18.80;32.50
22923;DHT22;11627;51.322;22.816;2023-06-10T10:52:12;18.90;34.60
22923;DHT22;11627;51.322;22.816;2023-06-10T10:54:43;19.00;31.00
22923;DHT22;11627;51.322;22.816;2023-06-10T10:57:21;19.00;26.90
22923;DHT22;11627;51.322;22.816;2023-06-10T11:00:01;19.00;21.20
22923;DHT22;11627;51.322;22.816;2023-06-10T11:02:50;19.10;22.10
22923;DHT22;11627;51.322;22.816;2023-06-10T11:05:31;19.20;26.60
22923;DHT22;11627;51.322;22.816;2023-06-10T11:07:59;19.20;20.90
22923;DHT22;11627;51.322;22.816;2023-06-10T11:10:33;19.20;17.30
22923;DHT22;11627;51.322;22.816;2023-06-10T11:13:06;19.20;16.50
22923;DHT22;11627;51.322;22.816;2023-06-10T11:15:43;19.20;20.60
22923;DHT22;11627;51.322;22.816;2023-06-10T11:18:34;19.30;26.40
22923;DHT22;11627;51.322;22.816;2023-06-10T11:21:07;19.30;24.60
22923;DHT22;11627;51.322;22.816;2023-06-10T11:23:39;19.40;22.10
22923;DHT22;11627;51.322;22.816;2023-06-10T11:29:11;19.40;16.80
22923;DHT22;11627;51.322;22.816;2023-06-10T11:31:45;19.40;17.40
22923;DHT22;11627;51.322;22.816;2023-06-10T11:34:20;19.40;21.60
22923;DHT22;11627;51.322;22.816;2023-06-10T11:36:50;19.50;16.30
22923;DHT22;11627;51.322;22.816;2023-06-10T11:39:19;19.60;24.70
22923;DHT22;11627;51.322;22.816;2023-06-10T11:41:58;19.60;21.40
22923;DHT22;11627;51.322;22.816;2023-06-10T11:44:36;19.60;13.40
22923;DHT22;11627;51.322;22.816;2023-06-10T11:47:04;19.70;9.70
22923;DHT22;11627;51.322;22.816;2023-06-10T11:49:31;19.70;3.80
22923;DHT22;11627;51.322;22.816;2023-06-10T11:51:58;19.70;1.20
22923;DHT22;11627;51.322;22.816;2023-06-10T11:54:25;19.70;5.50
22923;DHT22;11627;51.322;22.816;2023-06-10T11:56:58;19.70;6.60
22923;DHT22;11627;51.322;22.816;2023-06-10T11:59:29;19.70;1.00
22923;DHT22;11627;51.322;22.816;2023-06-10T12:01:56;19.80;1.00
22923;DHT22;11627;51.322;22.816;2023-06-10T12:04:24;19.80;1.00
22923;DHT22;11627;51.322;22.816;2023-06-10T12:06:53;19.90;1.00
22923;DHT22;11627;51.322;22.816;2023-06-10T12:09:39;20.00;1.00
22923;DHT22;11627;51.322;22.816;2023-06-10T12:12:06;20.10;1.00
22923;DHT22;11627;51.322;22.816;2023-06-10T12:14:52;20.20;6.10
22923;DHT22;11627;51.322;22.816;2023-06-10T12:17:43;20.30;8.30
22923;DHT22;11627;51.322;22.816;2023-06-10T12:20:28;20.20;1.00
22923;DHT22;11627;51.322;22.816;2023-06-10T12:22:55;20.30;1.00
22923;DHT22;11627;51.322;22.816;2023-06-10T12:25:27;20.40;1.00
22923;DHT22;11627;51.322;22.816;2023-06-10T12:27:56;20.40;1.00
22923;DHT22;11627;51.322;22.816;2023-06-10T12:30:25;20.50;1.00
22923;DHT22;11627;51.322;22.816;2023-06-10T12:32:54;20.60;1.00
22923;DHT22;11627;51.322;22.816;2023-06-10T12:35:27;20.50;1.00
22923;DHT22;11627;51.322;22.816;2023-06-10T12:38:05;20.50;1.00
22923;DHT22;11627;51.322;22.816;2023-06-10T12:40:39;20.60;1.00
22923;DHT22;11627;51.322;22.816;2023-06-10T12:43:07;20.60;1.00
22923;DHT22;11627;51.322;22.816;2023-06-10T12:45:38;20.60;1.00
22923;DHT22;11627;51.322;22.816;2023-06-10T12:48:27;20.70;1.00
22923;DHT22;11627;51.322;22.816;2023-06-10T12:51:01;20.70;1.00
22923;DHT22;11627;51.322;22.816;2023-06-10T12:53:28;20.70;1.00
22923;DHT22;11627;51.322;22.816;2023-06-10T12:55:55;20.60;1.00
22923;DHT22;11627;51.322;22.816;2023-06-10T12:58:23;20.50;1.00
22923;DHT22;11627;51.322;22.816;2023-06-10T13:00:50;20.50;1.00
22923;DHT22;11627;51.322;22.816;2023-06-10T13:03:20;20.50;1.00
22923;DHT22;11627;51.322;22.816;2023-06-10T13:05:48;20.50;1.00
22923;DHT22;11627;51.322;22.816;2023-06-10T13:08:15;20.50;1.00
22923;DHT22;11627;51.322;22.816;2023-06-10T13:10:42;20.50;1.00
22923;DHT22;11627;51.322;22.816;2023-06-10T13:13:09;20.60;1.00
22923;DHT22;11627;51.322;22.816;2023-06-10T13:15:36;20.70;1.00
22923;DHT22;11627;51.322;22.816;2023-06-10T13:18:04;20.80;1.00
22923;DHT22;11627;51.322;22.816;2023-06-10T13:20:31;21.00;1.00
22923;DHT22;11627;51.322;22.816;2023-06-10T13:22:58;21.10;1.00
22923;DHT22;11627;51.322;22.816;2023-06-10T13:25:25;21.30;1.00
22923;DHT22;11627;51.322;22.816;2023-06-10T13:27:52;21.30;1.00
22923;DHT22;11627;51.322;22.816;2023-06-10T13:30:19;21.40;1.00
22923;DHT22;11627;51.322;22.816;2023-06-10T13:32:46;21.40;1.00
22923;DHT22;11627;51.322;22.816;2023-06-10T13:35:14;21.40;1.00
22923;DHT22;11627;51.322;22.816;2023-06-10T13:37:40;21.50;1.00
22923;DHT22;11627;51.322;22.816;2023-06-10T13:40:06;21.50;1.00
22923;DHT22;11627;51.322;22.816;2023-06-10T13:42:35;21.50;1.00
22923;DHT22;11627;51.322;22.816;2023-06-10T13:45:05;21.50;1.00
22923;DHT22;11627;51.322;22.816;2023-06-10T13:47:32;21.50;1.00
22923;DHT22;11627;51.322;22.816;2023-06-10T13:50:01;21.60;1.00
22923;DHT22;11627;51.322;22.816;2023-06-10T13:52:28;21.50;1.00
22923;DHT22;11627;51.322;22.816;2023-06-10T13:54:55;21.30;1.00
22923;DHT22;11627;51.322;22.816;2023-06-10T13:57:22;21.30;1.00
22923;DHT22;11627;51.322;22.816;2023-06-10T13:59:50;21.40;1.00
22923;DHT22;11627;51.322;22.816;2023-06-10T14:02:17;21.50;1.00
22923;DHT22;11627;51.322;22.816;2023-06-10T14:04:44;21.30;1.00
22923;DHT22;11627;51.322;22.816;2023-06-10T14:07:11;21.20;1.00
22923;DHT22;11627;51.322;22.816;2023-06-10T14:09:38;21.30;1.00
22923;DHT22;11627;51.322;22.816;2023-06-10T14:12:05;21.40;1.00
22923;DHT22;11627;51.322;22.816;2023-06-10T14:14:32;21.50;1.00
22923;DHT22;11627;51.322;22.816;2023-06-10T14:16:59;21.50;1.00
22923;DHT22;11627;51.322;22.816;2023-06-10T14:19:26;21.60;1.00
22923;DHT22;11627;51.322;22.816;2023-06-10T14:21:53;21.70;1.00
22923;DHT22;11627;51.322;22.816;2023-06-10T14:24:20;21.70;1.00
22923;DHT22;11627;51.322;22.816;2023-06-10T14:26:47;21.70;1.00
22923;DHT22;11627;51.322;22.816;2023-06-10T14:29:16;21.70;1.00
22923;DHT22;11627;51.322;22.816;2023-06-10T14:31:45;21.70;1.00
22923;DHT22;11627;51.322;22.816;2023-06-10T14:34:11;21.60;1.00
22923;DHT22;11627;51.322;22.816;2023-06-10T14:36:37;21.60;1.00
22923;DHT22;11627;51.322;22.816;2023-06-10T14:39:04;21.60;1.00
22923;DHT22;11627;51.322;22.816;2023-06-10T14:41:31;21.70;99.90
22923;DHT22;11627;51.322;22.816;2023-06-10T14:44:00;21.80;1.00
22923;DHT22;11627;51.322;22.816;2023-06-10T14:46:27;21.90;99.90
22923;DHT22;11627;51.322;22.816;2023-06-10T14:48:54;21.90;99.90
22923;DHT22;11627;51.322;22.816;2023-06-10T14:51:21;21.90;99.90
22923;DHT22;11627;51.322;22.816;2023-06-10T14:53:48;21.70;99.90
22923;DHT22;11627;51.322;22.816;2023-06-10T14:56:15;21.60;99.90
22923;DHT22;11627;51.322;22.816;2023-06-10T14:58:46;21.70;99.90
22923;DHT22;11627;51.322;22.816;2023-06-10T15:01:14;21.70;99.90
22923;DHT22;11627;51.322;22.816;2023-06-10T15:03:41;21.80;99.90
22923;DHT22;11627;51.322;22.816;2023-06-10T15:06:08;21.80;99.90
22923;DHT22;11627;51.322;22.816;2023-06-10T15:08:35;21.80;99.90
22923;DHT22;11627;51.322;22.816;2023-06-10T15:11:02;21.80;99.90
22923;DHT22;11627;51.322;22.816;2023-06-10T15:13:29;21.90;99.90
22923;DHT22;11627;51.322;22.816;2023-06-10T15:15:56;21.90;99.90
22923;DHT22;11627;51.322;22.816;2023-06-10T15:18:23;21.80;99.90
22923;DHT22;11627;51.322;22.816;2023-06-10T15:20:49;21.80;99.90
22923;DHT22;11627;51.322;22.816;2023-06-10T15:23:16;21.90;99.90
22923;DHT22;11627;51.322;22.816;2023-06-10T15:25:43;21.90;99.90
22923;DHT22;11627;51.322;22.816;2023-06-10T15:28:10;22.10;99.90
22923;DHT22;11627;51.322;22.816;2023-06-10T15:30:37;22.20;99.90
22923;DHT22;11627;51.322;22.816;2023-06-10T15:33:04;22.30;99.90
22923;DHT22;11627;51.322;22.816;2023-06-10T15:35:33;22.40;99.90
22923;DHT22;11627;51.322;22.816;2023-06-10T15:38:00;22.50;99.90
22923;DHT22;11627;51.322;22.816;2023-06-10T15:40:27;22.60;99.90
22923;DHT22;11627;51.322;22.816;2023-06-10T15:42:54;22.60;99.90